sensor_id;sensor_type;location;lat;lon;timestamp;temperature;humidity
41924;DHT22;27613;48.116;11.656;2023-03-23T00:01:04;9.90;83.90
41924;DHT22;27613;48.116;11.656;2023-03-23T00:03:30;9.90;84.10
41924;DHT22;27613;48.116;11.656;2023-03-23T00:05:59;9.90;84.30
41924;DHT22;27613;48.116;11.656;2023-03-23T00:08:30;9.90;84.70
41924;DHT22;27613;48.116;11.656;2023-03-23T00:10:56;9.80;85.00
41924;DHT22;27613;48.116;11.656;2023-03-23T00:13:26;9.80;85.40
41924;DHT22;27613;48.116;11.656;2023-03-23T00:15:54;9.80;85.50
41924;DHT22;27613;48.116;11.656;2023-03-23T00:18:22;9.80;86.00
41924;DHT22;27613;48.116;11.656;2023-03-23T00:20:53;9.80;86.90
41924;DHT22;27613;48.116;11.656;2023-03-23T00:23:22;9.70;86.90
41924;DHT22;27613;48.116;11.656;2023-03-23T00:25:50;9.70;87.20
41924;DHT22;27613;48.116;11.656;2023-03-23T00:28:19;9.70;87.50
41924;DHT22;27613;48.116;11.656;2023-03-23T00:31:01;9.70;87.60
41924;DHT22;27613;48.116;11.656;2023-03-23T00:33:28;9.60;88.10
41924;DHT22;27613;48.116;11.656;2023-03-23T00:35:57;9.70;88.20
41924;DHT22;27613;48.116;11.656;2023-03-23T00:38:24;9.70;88.40
41924;DHT22;27613;48.116;11.656;2023-03-23T00:40:50;9.60;89.00
41924;DHT22;27613;48.116;11.656;2023-03-23T00:43:17;9.60;89.40
41924;DHT22;27613;48.116;11.656;2023-03-23T00:45:44;9.60;89.50
41924;DHT22;27613;48.116;11.656;2023-03-23T00:48:11;9.60;89.90
41924;DHT22;27613;48.116;11.656;2023-03-23T00:50:39;9.60;90.00
41924;DHT22;27613;48.116;11.656;2023-03-23T00:53:05;9.60;90.10
41924;DHT22;27613;48.116;11.656;2023-03-23T00:55:33;9.60;90.30
41924;DHT22;27613;48.116;11.656;2023-03-23T00:57:59;9.60;90.50
41924;DHT22;27613;48.116;11.656;2023-03-23T01:00:25;9.60;90.70
41924;DHT22;27613;48.116;11.656;2023-03-23T01:02:53;9.50;90.90
41924;DHT22;27613;48.116;11.656;2023-03-23T01:05:22;9.60;91.00
41924;DHT22;27613;48.116;11.656;2023-03-23T01:07:50;9.50;91.10
41924;DHT22;27613;48.116;11.656;2023-03-23T01:10:15;9.60;91.30
41924;DHT22;27613;48.116;11.656;2023-03-23T01:12:45;9.50;91.50
41924;DHT22;27613;48.116;11.656;2023-03-23T01:15:16;9.50;91.80
41924;DHT22;27613;48.116;11.656;2023-03-23T01:17:43;9.50;91.90
41924;DHT22;27613;48.116;11.656;2023-03-23T01:20:14;9.50;92.00
41924;DHT22;27613;48.116;11.656;2023-03-23T01:22:42;9.50;92.30
41924;DHT22;27613;48.116;11.656;2023-03-23T01:25:10;9.50;92.60
41924;DHT22;27613;48.116;11.656;2023-03-23T01:27:38;9.40;92.90
41924;DHT22;27613;48.116;11.656;2023-03-23T01:30:06;9.40;93.20
41924;DHT22;27613;48.116;11.656;2023-03-23T01:32:32;9.40;93.40
41924;DHT22;27613;48.116;11.656;2023-03-23T01:34:58;9.40;93.60
41924;DHT22;27613;48.116;11.656;2023-03-23T01:37:24;9.40;93.70
41924;DHT22;27613;48.116;11.656;2023-03-23T01:39:53;9.30;94.00
41924;DHT22;27613;48.116;11.656;2023-03-23T01:42:24;9.40;94.00
41924;DHT22;27613;48.116;11.656;2023-03-23T01:47:17;9.40;94.40
41924;DHT22;27613;48.116;11.656;2023-03-23T01:49:46;9.40;94.60
41924;DHT22;27613;48.116;11.656;2023-03-23T01:52:20;9.40;94.70
41924;DHT22;27613;48.116;11.656;2023-03-23T01:54:47;9.40;94.60
41924;DHT22;27613;48.116;11.656;2023-03-23T01:57:19;9.40;94.90
41924;DHT22;27613;48.116;11.656;2023-03-23T01:59:50;9.30;95.20
41924;DHT22;27613;48.116;11.656;2023-03-23T02:02:17;9.30;95.30
41924;DHT22;27613;48.116;11.656;2023-03-23T02:04:43;9.40;95.30
41924;DHT22;27613;48.116;11.656;2023-03-23T02:07:09;9.40;95.50
41924;DHT22;27613;48.116;11.656;2023-03-23T02:09:36;9.30;95.70
41924;DHT22;27613;48.116;11.656;2023-03-23T02:12:02;9.30;96.10
41924;DHT22;27613;48.116;11.656;2023-03-23T02:14:28;9.30;96.50
41924;DHT22;27613;48.116;11.656;2023-03-23T02:17:09;9.20;96.70
41924;DHT22;27613;48.116;11.656;2023-03-23T02:23:07;9.10;97.70
41924;DHT22;27613;48.116;11.656;2023-03-23T02:28:56;9.00;98.80
41924;DHT22;27613;48.116;11.656;2023-03-23T02:31:46;9.00;99.40
41924;DHT22;27613;48.116;11.656;2023-03-23T02:34:27;9.00;99.80
41924;DHT22;27613;48.116;11.656;2023-03-23T02:37:02;8.90;99.50
41924;DHT22;27613;48.116;11.656;2023-03-23T02:39:47;9.00;99.70
41924;DHT22;27613;48.116;11.656;2023-03-23T02:42:17;9.00;99.70
41924;DHT22;27613;48.116;11.656;2023-03-23T02:44:45;9.00;99.80
41924;DHT22;27613;48.116;11.656;2023-03-23T02:47:16;9.00;99.90
41924;DHT22;27613;48.116;11.656;2023-03-23T02:49:45;9.00;99.90
41924;DHT22;27613;48.116;11.656;2023-03-23T02:52:14;9.00;99.90
41924;DHT22;27613;48.116;11.656;2023-03-23T02:54:43;9.00;99.90
41924;DHT22;27613;48.116;11.656;2023-03-23T02:57:10;9.00;99.90
41924;DHT22;27613;48.116;11.656;2023-03-23T02:59:36;9.00;99.90
41924;DHT22;27613;48.116;11.656;2023-03-23T03:02:05;9.00;99.90
41924;DHT22;27613;48.116;11.656;2023-03-23T03:04:32;9.00;99.90
41924;DHT22;27613;48.116;11.656;2023-03-23T03:13:19;8.80;99.90
41924;DHT22;27613;48.116;11.656;2023-03-23T03:15:51;8.80;99.90
41924;DHT22;27613;48.116;11.656;2023-03-23T03:18:26;8.80;99.90
41924;DHT22;27613;48.116;11.656;2023-03-23T03:20:59;8.80;99.90
41924;DHT22;27613;48.116;11.656;2023-03-23T03:23:27;8.80;99.90
41924;DHT22;27613;48.116;11.656;2023-03-23T03:25:54;8.70;99.90
41924;DHT22;27613;48.116;11.656;2023-03-23T03:28:23;8.70;99.90
41924;DHT22;27613;48.116;11.656;2023-03-23T03:30:54;8.80;99.90
41924;DHT22;27613;48.116;11.656;2023-03-23T03:33:22;8.90;99.90
41924;DHT22;27613;48.116;11.656;2023-03-23T03:35:54;8.90;99.90
41924;DHT22;27613;48.116;11.656;2023-03-23T03:38:20;8.90;99.90
41924;DHT22;27613;48.116;11.656;2023-03-23T03:40:46;8.90;99.90
41924;DHT22;27613;48.116;11.656;2023-03-23T03:43:12;8.90;99.90
41924;DHT22;27613;48.116;11.656;2023-03-23T03:45:38;8.90;99.90
41924;DHT22;27613;48.116;11.656;2023-03-23T03:48:03;8.80;99.90
41924;DHT22;27613;48.116;11.656;2023-03-23T03:50:29;8.90;99.90
41924;DHT22;27613;48.116;11.656;2023-03-23T03:52:55;8.90;99.90
41924;DHT22;27613;48.116;11.656;2023-03-23T03:55:21;8.80;99.90
41924;DHT22;27613;48.116;11.656;2023-03-23T03:57:47;8.90;99.90
41924;DHT22;27613;48.116;11.656;2023-03-23T04:00:13;8.90;99.90
41924;DHT22;27613;48.116;11.656;2023-03-23T04:02:41;8.90;99.90
41924;DHT22;27613;48.116;11.656;2023-03-23T04:05:07;8.80;99.90
41924;DHT22;27613;48.116;11.656;2023-03-23T04:07:34;8.90;99.90
41924;DHT22;27613;48.116;11.656;2023-03-23T04:10:02;8.90;99.90
41924;DHT22;27613;48.116;11.656;2023-03-23T04:12:29;8.80;99.90
41924;DHT22;27613;48.116;11.656;2023-03-23T04:14:55;8.80;99.90
41924;DHT22;27613;48.116;11.656;2023-03-23T04:17:20;8.80;99.90
41924;DHT22;27613;48.116;11.656;2023-03-23T04:19:46;8.90;99.90
41924;DHT22;27613;48.116;11.656;2023-03-23T04:22:12;9.00;99.90
41924;DHT22;27613;48.116;11.656;2023-03-23T04:24:38;9.00;99.90
41924;DHT22;27613;48.116;11.656;2023-03-23T04:27:03;8.90;99.90
41924;DHT22;27613;48.116;11.656;2023-03-23T04:29:30;8.80;99.90
41924;DHT22;27613;48.116;11.656;2023-03-23T04:31:57;8.80;99.90
41924;DHT22;27613;48.116;11.656;2023-03-23T04:34:23;8.70;99.90
41924;DHT22;27613;48.116;11.656;2023-03-23T04:36:49;8.80;99.90
41924;DHT22;27613;48.116;11.656;2023-03-23T04:39:14;8.70;99.90
41924;DHT22;27613;48.116;11.656;2023-03-23T04:41:41;8.70;99.90
41924;DHT22;27613;48.116;11.656;2023-03-23T04:44:07;8.70;99.90
41924;DHT22;27613;48.116;11.656;2023-03-23T04:46:33;8.70;99.90
41924;DHT22;27613;48.116;11.656;2023-03-23T04:48:59;8.70;99.90
41924;DHT22;27613;48.116;11.656;2023-03-23T04:51:26;8.80;99.90
41924;DHT22;27613;48.116;11.656;2023-03-23T04:53:52;8.80;99.90
41924;DHT22;27613;48.116;11.656;2023-03-23T04:56:18;8.70;99.90
41924;DHT22;27613;48.116;11.656;2023-03-23T04:58:44;8.80;99.90
41924;DHT22;27613;48.116;11.656;2023-03-23T05:01:10;8.90;99.90
41924;DHT22;27613;48.116;11.656;2023-03-23T05:03:39;8.80;99.90
41924;DHT22;27613;48.116;11.656;2023-03-23T05:06:05;8.80;99.90
41924;DHT22;27613;48.116;11.656;2023-03-23T05:08:31;8.80;99.90
41924;DHT22;27613;48.116;11.656;2023-03-23T05:10:59;8.80;99.90
41924;DHT22;27613;48.116;11.656;2023-03-23T05:13:25;8.80;99.90
41924;DHT22;27613;48.116;11.656;2023-03-23T05:15:51;8.80;99.90
41924;DHT22;27613;48.116;11.656;2023-03-23T05:18:16;8.90;99.90
41924;DHT22;27613;48.116;11.656;2023-03-23T05:20:42;8.90;99.90
41924;DHT22;27613;48.116;11.656;2023-03-23T05:23:09;8.90;99.90
41924;DHT22;27613;48.116;11.656;2023-03-23T05:25:35;8.90;99.90
41924;DHT22;27613;48.116;11.656;2023-03-23T05:28:08;9.00;99.90
41924;DHT22;27613;48.116;11.656;2023-03-23T05:30:36;9.00;99.90
41924;DHT22;27613;48.116;11.656;2023-03-23T05:33:02;9.00;99.90
41924;DHT22;27613;48.116;11.656;2023-03-23T05:35:28;9.00;99.90
41924;DHT22;27613;48.116;11.656;2023-03-23T05:37:54;9.10;99.90
41924;DHT22;27613;48.116;11.656;2023-03-23T05:40:21;9.00;99.90
41924;DHT22;27613;48.116;11.656;2023-03-23T05:42:47;9.10;99.90
41924;DHT22;27613;48.116;11.656;2023-03-23T05:45:13;9.00;99.90
41924;DHT22;27613;48.116;11.656;2023-03-23T05:47:40;9.00;99.90
41924;DHT22;27613;48.116;11.656;2023-03-23T05:50:07;9.00;99.90
41924;DHT22;27613;48.116;11.656;2023-03-23T05:52:34;9.00;99.90
41924;DHT22;27613;48.116;11.656;2023-03-23T05:55:01;9.00;99.90
41924;DHT22;27613;48.116;11.656;2023-03-23T05:57:28;9.10;99.90
41924;DHT22;27613;48.116;11.656;2023-03-23T05:59:54;9.10;99.90
41924;DHT22;27613;48.116;11.656;2023-03-23T06:02:21;9.10;99.90
41924;DHT22;27613;48.116;11.656;2023-03-23T06:04:48;9.10;99.90
41924;DHT22;27613;48.116;11.656;2023-03-23T06:07:14;9.10;99.90
41924;DHT22;27613;48.116;11.656;2023-03-23T06:09:40;9.20;99.90
41924;DHT22;27613;48.116;11.656;2023-03-23T06:12:07;9.20;99.90
41924;DHT22;27613;48.116;11.656;2023-03-23T06:14:33;9.20;99.90
41924;DHT22;27613;48.116;11.656;2023-03-23T06:16:58;9.20;99.90
41924;DHT22;27613;48.116;11.656;2023-03-23T06:19:24;9.20;99.90
41924;DHT22;27613;48.116;11.656;2023-03-23T06:21:52;9.20;99.90
41924;DHT22;27613;48.116;11.656;2023-03-23T06:24:17;9.40;99.90
41924;DHT22;27613;48.116;11.656;2023-03-23T06:26:43;9.50;99.90
41924;DHT22;27613;48.116;11.656;2023-03-23T06:29:09;9.60;99.90
41924;DHT22;27613;48.116;11.656;2023-03-23T06:31:44;9.70;99.90
41924;DHT22;27613;48.116;11.656;2023-03-23T06:34:11;9.80;99.90
41924;DHT22;27613;48.116;11.656;2023-03-23T06:36:37;9.80;99.90
41924;DHT22;27613;48.116;11.656;2023-03-23T06:39:04;9.90;99.70
41924;DHT22;27613;48.116;11.656;2023-03-23T06:41:33;9.90;99.90
41924;DHT22;27613;48.116;11.656;2023-03-23T06:43:59;9.90;99.90
41924;DHT22;27613;48.116;11.656;2023-03-23T06:46:26;10.00;99.50
41924;DHT22;27613;48.116;11.656;2023-03-23T06:48:52;10.00;98.80
41924;DHT22;27613;48.116;11.656;2023-03-23T06:51:18;10.10;98.80
41924;DHT22;27613;48.116;11.656;2023-03-23T06:53:43;10.20;97.90
41924;DHT22;27613;48.116;11.656;2023-03-23T06:56:09;10.30;97.80
41924;DHT22;27613;48.116;11.656;2023-03-23T06:58:35;10.30;97.50
41924;DHT22;27613;48.116;11.656;2023-03-23T07:01:01;10.30;97.30
41924;DHT22;27613;48.116;11.656;2023-03-23T07:03:27;10.40;97.00
41924;DHT22;27613;48.116;11.656;2023-03-23T07:05:53;10.40;96.70
41924;DHT22;27613;48.116;11.656;2023-03-23T07:08:19;10.40;96.60
41924;DHT22;27613;48.116;11.656;2023-03-23T07:10:47;10.50;96.50
41924;DHT22;27613;48.116;11.656;2023-03-23T07:13:12;10.60;96.70
41924;DHT22;27613;48.116;11.656;2023-03-23T07:15:39;10.60;96.80
41924;DHT22;27613;48.116;11.656;2023-03-23T07:18:05;10.60;96.60
41924;DHT22;27613;48.116;11.656;2023-03-23T07:20:30;10.60;96.80
41924;DHT22;27613;48.116;11.656;2023-03-23T07:22:56;10.70;96.50
41924;DHT22;27613;48.116;11.656;2023-03-23T07:25:21;10.70;96.00
41924;DHT22;27613;48.116;11.656;2023-03-23T07:27:47;10.90;95.80
41924;DHT22;27613;48.116;11.656;2023-03-23T07:30:13;11.10;95.20
41924;DHT22;27613;48.116;11.656;2023-03-23T07:32:40;11.30;94.80
41924;DHT22;27613;48.116;11.656;2023-03-23T07:35:06;11.50;94.10
41924;DHT22;27613;48.116;11.656;2023-03-23T07:37:32;11.70;93.00
41924;DHT22;27613;48.116;11.656;2023-03-23T07:39:58;11.70;92.90
41924;DHT22;27613;48.116;11.656;2023-03-23T07:42:24;12.00;92.40
41924;DHT22;27613;48.116;11.656;2023-03-23T07:44:49;12.10;91.90
41924;DHT22;27613;48.116;11.656;2023-03-23T07:47:15;12.40;91.20
41924;DHT22;27613;48.116;11.656;2023-03-23T07:49:43;12.60;90.90
41924;DHT22;27613;48.116;11.656;2023-03-23T07:52:08;12.70;91.10
41924;DHT22;27613;48.116;11.656;2023-03-23T07:54:36;12.80;90.50
41924;DHT22;27613;48.116;11.656;2023-03-23T07:57:02;12.80;88.40
41924;DHT22;27613;48.116;11.656;2023-03-23T07:59:27;13.40;88.30
41924;DHT22;27613;48.116;11.656;2023-03-23T08:01:53;13.60;86.10
41924;DHT22;27613;48.116;11.656;2023-03-23T08:04:18;13.90;84.90
41924;DHT22;27613;48.116;11.656;2023-03-23T08:06:44;14.30;82.90
41924;DHT22;27613;48.116;11.656;2023-03-23T08:09:10;14.40;81.40
41924;DHT22;27613;48.116;11.656;2023-03-23T08:11:36;14.00;79.90
41924;DHT22;27613;48.116;11.656;2023-03-23T08:14:02;14.20;80.40
41924;DHT22;27613;48.116;11.656;2023-03-23T08:16:28;14.00;79.90
41924;DHT22;27613;48.116;11.656;2023-03-23T08:18:54;14.10;80.70
41924;DHT22;27613;48.116;11.656;2023-03-23T08:21:19;14.20;80.90
41924;DHT22;27613;48.116;11.656;2023-03-23T08:23:46;14.10;79.20
41924;DHT22;27613;48.116;11.656;2023-03-23T08:26:11;14.20;79.00
41924;DHT22;27613;48.116;11.656;2023-03-23T08:28:37;14.30;78.80
41924;DHT22;27613;48.116;11.656;2023-03-23T08:31:12;14.40;79.20
41924;DHT22;27613;48.116;11.656;2023-03-23T08:33:39;14.30;77.60
41924;DHT22;27613;48.116;11.656;2023-03-23T08:36:05;14.20;78.80
41924;DHT22;27613;48.116;11.656;2023-03-23T08:38:31;14.20;79.30
41924;DHT22;27613;48.116;11.656;2023-03-23T08:40:59;14.20;78.50
41924;DHT22;27613;48.116;11.656;2023-03-23T08:43:25;14.20;78.10
41924;DHT22;27613;48.116;11.656;2023-03-23T08:45:50;14.20;77.70
41924;DHT22;27613;48.116;11.656;2023-03-23T08:48:17;14.40;77.20
41924;DHT22;27613;48.116;11.656;2023-03-23T08:50:43;14.50;76.80
41924;DHT22;27613;48.116;11.656;2023-03-23T08:53:09;14.60;75.90
41924;DHT22;27613;48.116;11.656;2023-03-23T08:55:34;14.60;75.80
41924;DHT22;27613;48.116;11.656;2023-03-23T08:58:00;14.70;76.30
41924;DHT22;27613;48.116;11.656;2023-03-23T09:00:27;14.80;76.00
41924;DHT22;27613;48.116;11.656;2023-03-23T09:02:53;14.90;75.60
41924;DHT22;27613;48.116;11.656;2023-03-23T09:05:21;14.80;76.00
41924;DHT22;27613;48.116;11.656;2023-03-23T09:07:49;14.80;75.90
41924;DHT22;27613;48.116;11.656;2023-03-23T09:10:16;15.00;75.20
41924;DHT22;27613;48.116;11.656;2023-03-23T09:12:43;15.30;75.20
41924;DHT22;27613;48.116;11.656;2023-03-23T09:15:12;15.70;74.70
41924;DHT22;27613;48.116;11.656;2023-03-23T09:17:44;16.40;73.20
41924;DHT22;27613;48.116;11.656;2023-03-23T09:20:11;16.70;73.80
41924;DHT22;27613;48.116;11.656;2023-03-23T09:22:45;16.70;71.50
41924;DHT22;27613;48.116;11.656;2023-03-23T09:25:13;16.40;71.30
41924;DHT22;27613;48.116;11.656;2023-03-23T09:27:40;16.30;71.60
41924;DHT22;27613;48.116;11.656;2023-03-23T09:30:09;16.10;72.70
41924;DHT22;27613;48.116;11.656;2023-03-23T09:32:36;16.00;73.00
41924;DHT22;27613;48.116;11.656;2023-03-23T09:35:03;16.00;72.40
41924;DHT22;27613;48.116;11.656;2023-03-23T09:37:29;15.60;73.00
41924;DHT22;27613;48.116;11.656;2023-03-23T09:39:56;15.50;73.40
41924;DHT22;27613;48.116;11.656;2023-03-23T09:45:52;15.80;72.90
41924;DHT22;27613;48.116;11.656;2023-03-23T09:48:54;16.00;72.10
41924;DHT22;27613;48.116;11.656;2023-03-23T09:56:44;16.40;71.90
41924;DHT22;27613;48.116;11.656;2023-03-23T10:02:30;16.50;68.90
41924;DHT22;27613;48.116;11.656;2023-03-23T10:07:41;18.30;64.20
41924;DHT22;27613;48.116;11.656;2023-03-23T10:10:12;18.60;63.20
41924;DHT22;27613;48.116;11.656;2023-03-23T10:13:03;18.10;61.90
41924;DHT22;27613;48.116;11.656;2023-03-23T10:15:33;18.70;62.50
41924;DHT22;27613;48.116;11.656;2023-03-23T10:18:15;19.40;59.80
41924;DHT22;27613;48.116;11.656;2023-03-23T10:20:43;19.70;58.40
41924;DHT22;27613;48.116;11.656;2023-03-23T10:23:20;18.90;59.10
41924;DHT22;27613;48.116;11.656;2023-03-23T10:25:58;18.70;59.30
41924;DHT22;27613;48.116;11.656;2023-03-23T10:28:43;18.30;58.90
41924;DHT22;27613;48.116;11.656;2023-03-23T10:31:32;18.10;60.20
41924;DHT22;27613;48.116;11.656;2023-03-23T10:34:04;17.80;61.10
41924;DHT22;27613;48.116;11.656;2023-03-23T10:36:38;17.30;60.70
41924;DHT22;27613;48.116;11.656;2023-03-23T10:39:21;17.30;61.40
41924;DHT22;27613;48.116;11.656;2023-03-23T10:41:48;17.20;62.00
41924;DHT22;27613;48.116;11.656;2023-03-23T10:44:20;17.20;60.80
41924;DHT22;27613;48.116;11.656;2023-03-23T10:46:56;17.10;61.10
41924;DHT22;27613;48.116;11.656;2023-03-23T10:49:27;17.00;62.00
41924;DHT22;27613;48.116;11.656;2023-03-23T10:57:39;17.10;62.70
41924;DHT22;27613;48.116;11.656;2023-03-23T11:00:16;17.10;62.80
41924;DHT22;27613;48.116;11.656;2023-03-23T11:02:58;17.20;61.90
41924;DHT22;27613;48.116;11.656;2023-03-23T11:05:48;17.20;62.50
41924;DHT22;27613;48.116;11.656;2023-03-23T11:08:13;17.20;62.40
41924;DHT22;27613;48.116;11.656;2023-03-23T11:11:28;17.30;62.10
41924;DHT22;27613;48.116;11.656;2023-03-23T11:13:32;17.50;62.30
41924;DHT22;27613;48.116;11.656;2023-03-23T11:15:58;17.40;61.80
41924;DHT22;27613;48.116;11.656;2023-03-23T11:21:02;17.50;62.10
41924;DHT22;27613;48.116;11.656;2023-03-23T11:23:41;17.40;62.80
41924;DHT22;27613;48.116;11.656;2023-03-23T11:26:28;17.50;61.50
41924;DHT22;27613;48.116;11.656;2023-03-23T11:29:16;17.30;60.70
41924;DHT22;27613;48.116;11.656;2023-03-23T11:31:52;17.50;60.00
41924;DHT22;27613;48.116;11.656;2023-03-23T11:34:21;17.60;61.20
41924;DHT22;27613;48.116;11.656;2023-03-23T11:39:59;17.90;59.60
41924;DHT22;27613;48.116;11.656;2023-03-23T11:48:25;18.50;59.50
41924;DHT22;27613;48.116;11.656;2023-03-23T11:54:00;19.20;56.90
41924;DHT22;27613;48.116;11.656;2023-03-23T11:56:34;19.30;57.10
41924;DHT22;27613;48.116;11.656;2023-03-23T11:59:00;19.50;56.60
41924;DHT22;27613;48.116;11.656;2023-03-23T12:14:46;20.50;53.90
41924;DHT22;27613;48.116;11.656;2023-03-23T12:17:53;20.50;54.20
41924;DHT22;27613;48.116;11.656;2023-03-23T12:20:32;20.00;54.70
41924;DHT22;27613;48.116;11.656;2023-03-23T12:28:17;19.20;54.50
41924;DHT22;27613;48.116;11.656;2023-03-23T12:30:55;19.30;55.50
41924;DHT22;27613;48.116;11.656;2023-03-23T12:36:22;19.70;55.10
41924;DHT22;27613;48.116;11.656;2023-03-23T12:42:14;20.20;54.60
41924;DHT22;27613;48.116;11.656;2023-03-23T12:44:52;20.10;54.10
41924;DHT22;27613;48.116;11.656;2023-03-23T12:47:48;19.90;55.20
41924;DHT22;27613;48.116;11.656;2023-03-23T12:50:18;19.70;55.30
41924;DHT22;27613;48.116;11.656;2023-03-23T12:53:03;20.00;54.50
41924;DHT22;27613;48.116;11.656;2023-03-23T12:55:45;20.10;54.00
41924;DHT22;27613;48.116;11.656;2023-03-23T12:58:15;19.90;53.80
41924;DHT22;27613;48.116;11.656;2023-03-23T13:01:04;20.00;53.90
41924;DHT22;27613;48.116;11.656;2023-03-23T13:03:44;19.80;54.20
41924;DHT22;27613;48.116;11.656;2023-03-23T13:06:18;19.60;54.60
41924;DHT22;27613;48.116;11.656;2023-03-23T13:09:10;19.70;54.50
41924;DHT22;27613;48.116;11.656;2023-03-23T13:11:39;19.90;53.90
41924;DHT22;27613;48.116;11.656;2023-03-23T13:22:16;19.10;53.50
41924;DHT22;27613;48.116;11.656;2023-03-23T13:24:53;19.10;54.30
41924;DHT22;27613;48.116;11.656;2023-03-23T13:27:24;19.10;54.20
41924;DHT22;27613;48.116;11.656;2023-03-23T13:29:53;18.90;53.60
41924;DHT22;27613;48.116;11.656;2023-03-23T13:32:19;18.70;54.30
41924;DHT22;27613;48.116;11.656;2023-03-23T13:34:47;18.70;54.90
41924;DHT22;27613;48.116;11.656;2023-03-23T13:42:52;19.00;54.10
41924;DHT22;27613;48.116;11.656;2023-03-23T13:48:02;19.20;54.20
41924;DHT22;27613;48.116;11.656;2023-03-23T13:50:30;19.30;54.20
41924;DHT22;27613;48.116;11.656;2023-03-23T13:53:01;19.40;54.20
41924;DHT22;27613;48.116;11.656;2023-03-23T14:03:15;19.60;54.60
41924;DHT22;27613;48.116;11.656;2023-03-23T14:11:09;19.90;54.40
41924;DHT22;27613;48.116;11.656;2023-03-23T14:14:04;19.90;54.80
41924;DHT22;27613;48.116;11.656;2023-03-23T14:16:40;19.50;55.80
41924;DHT22;27613;48.116;11.656;2023-03-23T14:19:25;19.30;57.70
41924;DHT22;27613;48.116;11.656;2023-03-23T14:21:56;19.40;57.20
41924;DHT22;27613;48.116;11.656;2023-03-23T14:24:23;19.30;58.00
41924;DHT22;27613;48.116;11.656;2023-03-23T14:26:50;19.40;58.60
41924;DHT22;27613;48.116;11.656;2023-03-23T14:29:18;19.20;58.60
41924;DHT22;27613;48.116;11.656;2023-03-23T14:31:47;19.20;59.50
41924;DHT22;27613;48.116;11.656;2023-03-23T14:34:16;19.00;59.30
41924;DHT22;27613;48.116;11.656;2023-03-23T14:36:43;18.80;59.10
41924;DHT22;27613;48.116;11.656;2023-03-23T14:39:31;18.80;59.30
41924;DHT22;27613;48.116;11.656;2023-03-23T14:42:07;18.70;57.90
41924;DHT22;27613;48.116;11.656;2023-03-23T14:44:40;18.70;58.50
41924;DHT22;27613;48.116;11.656;2023-03-23T14:47:24;18.90;58.00
41924;DHT22;27613;48.116;11.656;2023-03-23T14:49:56;18.90;57.80
41924;DHT22;27613;48.116;11.656;2023-03-23T14:52:26;18.80;58.00
41924;DHT22;27613;48.116;11.656;2023-03-23T14:54:51;18.60;58.60
41924;DHT22;27613;48.116;11.656;2023-03-23T14:59:46;18.50;58.60
41924;DHT22;27613;48.116;11.656;2023-03-23T15:02:31;18.40;58.60
41924;DHT22;27613;48.116;11.656;2023-03-23T15:05:02;18.40;59.50
41924;DHT22;27613;48.116;11.656;2023-03-23T15:07:34;18.20;59.80
41924;DHT22;27613;48.116;11.656;2023-03-23T15:10:01;18.10;59.90
41924;DHT22;27613;48.116;11.656;2023-03-23T15:12:29;18.10;60.10
41924;DHT22;27613;48.116;11.656;2023-03-23T15:14:58;17.90;60.20
41924;DHT22;27613;48.116;11.656;2023-03-23T15:17:30;17.80;60.50
41924;DHT22;27613;48.116;11.656;2023-03-23T15:19:56;17.70;60.80
41924;DHT22;27613;48.116;11.656;2023-03-23T15:22:26;17.70;61.60
41924;DHT22;27613;48.116;11.656;2023-03-23T15:25:11;17.80;61.30
41924;DHT22;27613;48.116;11.656;2023-03-23T15:27:43;17.70;61.20
41924;DHT22;27613;48.116;11.656;2023-03-23T15:32:59;17.90;61.30
41924;DHT22;27613;48.116;11.656;2023-03-23T15:35:26;17.90;61.20
41924;DHT22;27613;48.116;11.656;2023-03-23T15:38:01;17.90;61.80
41924;DHT22;27613;48.116;11.656;2023-03-23T15:40:31;17.90;61.90
41924;DHT22;27613;48.116;11.656;2023-03-23T15:43:18;17.80;61.90
41924;DHT22;27613;48.116;11.656;2023-03-23T15:48:30;17.40;62.60
41924;DHT22;27613;48.116;11.656;2023-03-23T15:50:56;17.40;62.90
41924;DHT22;27613;48.116;11.656;2023-03-23T15:53:29;17.30;63.00
41924;DHT22;27613;48.116;11.656;2023-03-23T15:55:55;17.40;64.10
41924;DHT22;27613;48.116;11.656;2023-03-23T15:58:23;17.30;64.30
41924;DHT22;27613;48.116;11.656;2023-03-23T16:00:50;17.10;64.00
41924;DHT22;27613;48.116;11.656;2023-03-23T16:03:22;17.10;64.30
41924;DHT22;27613;48.116;11.656;2023-03-23T16:05:50;17.00;64.80
41924;DHT22;27613;48.116;11.656;2023-03-23T16:08:15;16.80;64.50
41924;DHT22;27613;48.116;11.656;2023-03-23T16:10:42;16.70;64.90
41924;DHT22;27613;48.116;11.656;2023-03-23T16:13:08;16.70;65.20
41924;DHT22;27613;48.116;11.656;2023-03-23T16:15:33;16.70;65.30
41924;DHT22;27613;48.116;11.656;2023-03-23T16:17:59;16.60;65.60
41924;DHT22;27613;48.116;11.656;2023-03-23T16:20:27;16.60;65.90
41924;DHT22;27613;48.116;11.656;2023-03-23T16:22:53;16.40;66.60
41924;DHT22;27613;48.116;11.656;2023-03-23T16:25:19;16.50;67.10
41924;DHT22;27613;48.116;11.656;2023-03-23T16:27:45;16.40;66.80
41924;DHT22;27613;48.116;11.656;2023-03-23T16:30:27;16.40;67.20
41924;DHT22;27613;48.116;11.656;2023-03-23T16:32:53;16.20;68.20
41924;DHT22;27613;48.116;11.656;2023-03-23T16:35:19;16.20;69.40
41924;DHT22;27613;48.116;11.656;2023-03-23T16:37:50;16.10;70.40
41924;DHT22;27613;48.116;11.656;2023-03-23T16:40:18;16.00;72.00
41924;DHT22;27613;48.116;11.656;2023-03-23T16:42:44;16.00;73.20
41924;DHT22;27613;48.116;11.656;2023-03-23T16:45:11;15.80;75.10
41924;DHT22;27613;48.116;11.656;2023-03-23T16:47:38;15.80;75.50
41924;DHT22;27613;48.116;11.656;2023-03-23T16:50:05;15.80;76.90
41924;DHT22;27613;48.116;11.656;2023-03-23T16:52:32;15.70;76.00
41924;DHT22;27613;48.116;11.656;2023-03-23T16:54:58;15.70;79.30
41924;DHT22;27613;48.116;11.656;2023-03-23T16:57:24;15.50;79.10
41924;DHT22;27613;48.116;11.656;2023-03-23T16:59:50;15.50;79.10
41924;DHT22;27613;48.116;11.656;2023-03-23T17:02:16;15.40;79.30
41924;DHT22;27613;48.116;11.656;2023-03-23T17:04:43;15.40;81.00
41924;DHT22;27613;48.116;11.656;2023-03-23T17:07:10;15.40;80.10
41924;DHT22;27613;48.116;11.656;2023-03-23T17:09:36;15.20;80.40
41924;DHT22;27613;48.116;11.656;2023-03-23T17:12:01;15.20;80.30
41924;DHT22;27613;48.116;11.656;2023-03-23T17:14:27;15.20;80.40
41924;DHT22;27613;48.116;11.656;2023-03-23T17:16:53;15.20;80.80
41924;DHT22;27613;48.116;11.656;2023-03-23T17:19:18;15.10;80.00
41924;DHT22;27613;48.116;11.656;2023-03-23T17:21:44;15.10;80.20
41924;DHT22;27613;48.116;11.656;2023-03-23T17:24:09;15.10;81.40
41924;DHT22;27613;48.116;11.656;2023-03-23T17:26:35;15.10;81.20
41924;DHT22;27613;48.116;11.656;2023-03-23T17:29:02;15.00;81.20